sensor_id;sensor_type;location;lat;lon;timestamp;pressure;altitude;pressure_sealevel;temperature;humidity
44531;BME280;30240;47.418;0.700;2023-01-29T00:02:18;101827.81372070312;;;0.54;84.09
44531;BME280;30240;47.418;0.700;2023-01-29T00:04:43;101820.64208984375;;;0.48;84.23
44531;BME280;30240;47.418;0.700;2023-01-29T00:07:08;101816.455078125;;;0.42;84.36
44531;BME280;30240;47.418;0.700;2023-01-29T00:09:34;101818.06030273438;;;0.32;84.47
44531;BME280;30240;47.418;0.700;2023-01-29T00:11:58;101828.7353515625;;;0.36;84.48
44531;BME280;30240;47.418;0.700;2023-01-29T00:14:23;101828.7353515625;;;0.36;84.48
44531;BME280;30240;47.418;0.700;2023-01-29T00:16:48;101828.7353515625;;;0.34;84.69
44531;BME280;30240;47.418;0.700;2023-01-29T00:19:13;101835.13793945312;;;0.25;84.77
44531;BME280;30240;47.418;0.700;2023-01-29T00:21:38;101842.77954101562;;;0.24;84.97
44531;BME280;30240;47.418;0.700;2023-01-29T00:24:04;101841.15600585938;;;0.25;84.91
44531;BME280;30240;47.418;0.700;2023-01-29T00:26:28;101841.15600585938;;;0.25;84.91
44531;BME280;30240;47.418;0.700;2023-01-29T00:28:54;101841.73583984375;;;0.2;84.86
44531;BME280;30240;47.418;0.700;2023-01-29T00:31:21;101848.20556640625;;;0.09;85.06
44531;BME280;30240;47.418;0.700;2023-01-29T00:33:44;101846.28295898438;;;0.09;85.09
44531;BME280;30240;47.418;0.700;2023-01-29T00:36:11;101846.85668945312;;;0.07;85.15
44531;BME280;30240;47.418;0.700;2023-01-29T00:38:34;101846.85668945312;;;0.07;85.15
44531;BME280;30240;47.418;0.700;2023-01-29T00:41:04;101851.25122070312;;;0.02;85.37
44531;BME280;30240;47.418;0.700;2023-01-29T00:43:24;101852.1240234375;;;0.02;85.24
44531;BME280;30240;47.418;0.700;2023-01-29T00:45:48;101843.85375976562;;;0.06;85.36
44531;BME280;30240;47.418;0.700;2023-01-29T00:48:13;101844.921875;;;-0.03;85.52
44531;BME280;30240;47.418;0.700;2023-01-29T00:50:39;101844.921875;;;-0.03;85.52
44531;BME280;30240;47.418;0.700;2023-01-29T00:53:03;101839.26391601562;;;-0.14;85.63
44531;BME280;30240;47.418;0.700;2023-01-29T00:55:28;101841.52221679688;;;-0.14;85.58
44531;BME280;30240;47.418;0.700;2023-01-29T00:57:53;101840.87524414062;;;-0.12;85.76
44531;BME280;30240;47.418;0.700;2023-01-29T01:00:19;101841.4794921875;;;-0.12;85.52
44531;BME280;30240;47.418;0.700;2023-01-29T01:02:43;101841.4794921875;;;-0.12;85.52
44531;BME280;30240;47.418;0.700;2023-01-29T01:05:09;101838.34228515625;;;-0.18;85.6
44531;BME280;30240;47.418;0.700;2023-01-29T01:07:33;101845.5810546875;;;-0.19;85.84
44531;BME280;30240;47.418;0.700;2023-01-29T01:09:58;101843.06030273438;;;-0.22;85.82
44531;BME280;30240;47.418;0.700;2023-01-29T01:12:23;101847.4365234375;;;-0.23;85.99
44531;BME280;30240;47.418;0.700;2023-01-29T01:14:49;101846.71630859375;;;-0.26;86.04
44531;BME280;30240;47.418;0.700;2023-01-29T01:17:14;101846.71630859375;;;-0.26;86.04
44531;BME280;30240;47.418;0.700;2023-01-29T01:19:38;101848.20556640625;;;-0.28;85.93
44531;BME280;30240;47.418;0.700;2023-01-29T01:22:03;101843.408203125;;;-0.33;85.91
44531;BME280;30240;47.418;0.700;2023-01-29T01:24:28;101842.95043945312;;;-0.33;86.19
44531;BME280;30240;47.418;0.700;2023-01-29T01:26:53;101846.28295898438;;;-0.32;86.2
44531;BME280;30240;47.418;0.700;2023-01-29T01:29:18;101846.28295898438;;;-0.32;86.2
44531;BME280;30240;47.418;0.700;2023-01-29T01:31:43;101848.3642578125;;;-0.36;86.28
44531;BME280;30240;47.418;0.700;2023-01-29T01:34:09;101849.53002929688;;;-0.39;86.16
44531;BME280;30240;47.418;0.700;2023-01-29T01:36:34;101844.53125;;;-0.46;86.52
44531;BME280;30240;47.418;0.700;2023-01-29T01:38:59;101845.7275390625;;;-0.5;86.54
44531;BME280;30240;47.418;0.700;2023-01-29T01:41:24;101845.7275390625;;;-0.5;86.54
44531;BME280;30240;47.418;0.700;2023-01-29T01:43:50;101848.046875;;;-0.56;86.71
44531;BME280;30240;47.418;0.700;2023-01-29T01:46:13;101851.62353515625;;;-0.59;86.74
44531;BME280;30240;47.418;0.700;2023-01-29T01:48:39;101843.38989257812;;;-0.6;86.72
44531;BME280;30240;47.418;0.700;2023-01-29T01:51:04;101838.03100585938;;;-0.62;86.74
44531;BME280;30240;47.418;0.700;2023-01-29T01:53:31;101838.03100585938;;;-0.62;86.74
44531;BME280;30240;47.418;0.700;2023-01-29T01:55:56;101842.15087890625;;;-0.63;86.76
44531;BME280;30240;47.418;0.700;2023-01-29T01:58:22;101841.87622070312;;;-0.67;86.77
44531;BME280;30240;47.418;0.700;2023-01-29T02:00:43;101843.07250976562;;;-0.64;86.79
44531;BME280;30240;47.418;0.700;2023-01-29T02:03:09;101838.51318359375;;;-0.71;86.73
44531;BME280;30240;47.418;0.700;2023-01-29T02:05:35;101838.51318359375;;;-0.71;86.73
44531;BME280;30240;47.418;0.700;2023-01-29T02:07:58;101837.51831054688;;;-0.71;86.69
44531;BME280;30240;47.418;0.700;2023-01-29T02:10:24;101835.84594726562;;;-0.67;86.64
44531;BME280;30240;47.418;0.700;2023-01-29T02:12:50;101828.23486328125;;;-0.64;86.66
44531;BME280;30240;47.418;0.700;2023-01-29T02:15:13;101833.57543945312;;;-0.64;86.65
44531;BME280;30240;47.418;0.700;2023-01-29T02:17:38;101833.57543945312;;;-0.64;86.65
44531;BME280;30240;47.418;0.700;2023-01-29T02:20:09;101836.6455078125;;;-0.63;86.6
44531;BME280;30240;47.418;0.700;2023-01-29T02:23:04;101838.87329101562;;;-0.69;86.8
44531;BME280;30240;47.418;0.700;2023-01-29T02:25:16;101836.26708984375;;;-0.64;86.96
44531;BME280;30240;47.418;0.700;2023-01-29T02:25:42;101836.26708984375;;;-0.64;86.96
44531;BME280;30240;47.418;0.700;2023-01-29T02:27:20;101833.28247070312;;;-0.66;86.79
44531;BME280;30240;47.418;0.700;2023-01-29T02:29:50;101833.28247070312;;;-0.66;86.79
44531;BME280;30240;47.418;0.700;2023-01-29T02:32:14;101841.51611328125;;;-0.74;86.81
44531;BME280;30240;47.418;0.700;2023-01-29T02:34:38;101834.87548828125;;;-0.69;86.72
44531;BME280;30240;47.418;0.700;2023-01-29T02:37:03;101834.56420898438;;;-0.71;86.63
44531;BME280;30240;47.418;0.700;2023-01-29T02:37:08;101834.56420898438;;;-0.71;86.63
44531;BME280;30240;47.418;0.700;2023-01-29T02:39:27;101840.93627929688;;;-0.71;86.61
44531;BME280;30240;47.418;0.700;2023-01-29T02:41:54;101839.61181640625;;;-0.74;86.87
44531;BME280;30240;47.418;0.700;2023-01-29T02:44:19;101839.61181640625;;;-0.74;86.87
44531;BME280;30240;47.418;0.700;2023-01-29T02:46:47;101844.873046875;;;-0.78;86.84
44531;BME280;30240;47.418;0.700;2023-01-29T02:49:08;101855.75561523438;;;-0.8;86.97
44531;BME280;30240;47.418;0.700;2023-01-29T02:51:31;101856.75048828125;;;-0.81;87.17
44531;BME280;30240;47.418;0.700;2023-01-29T02:54:01;101859.86938476562;;;-0.88;87.01
44531;BME280;30240;47.418;0.700;2023-01-29T02:56:20;101859.86938476562;;;-0.88;87.01
44531;BME280;30240;47.418;0.700;2023-01-29T02:58:45;101860.66284179688;;;-0.89;87.13
44531;BME280;30240;47.418;0.700;2023-01-29T03:01:12;101860.7177734375;;;-1.04;87.55
44531;BME280;30240;47.418;0.700;2023-01-29T03:03:38;101859.31396484375;;;-1.2;87.55
44531;BME280;30240;47.418;0.700;2023-01-29T03:06:01;101857.03125;;;-1.28;87.82
44531;BME280;30240;47.418;0.700;2023-01-29T03:08:29;101857.03125;;;-1.28;87.82
44531;BME280;30240;47.418;0.700;2023-01-29T03:10:52;101851.92260742188;;;-1.28;87.9
44531;BME280;30240;47.418;0.700;2023-01-29T03:13:17;101848.29711914062;;;-1.25;87.93
44531;BME280;30240;47.418;0.700;2023-01-29T03:15:42;101849.66430664062;;;-1.3;87.87
44531;BME280;30240;47.418;0.700;2023-01-29T03:18:06;101849.5849609375;;;-1.28;87.92
44531;BME280;30240;47.418;0.700;2023-01-29T03:20:32;101849.5849609375;;;-1.28;87.92
44531;BME280;30240;47.418;0.700;2023-01-29T03:22:57;101854.18090820312;;;-1.32;87.91
44531;BME280;30240;47.418;0.700;2023-01-29T03:25:21;101858.01391601562;;;-1.33;88.05
44531;BME280;30240;47.418;0.700;2023-01-29T03:27:46;101859.14306640625;;;-1.4;88.12
44531;BME280;30240;47.418;0.700;2023-01-29T03:30:10;101857.44018554688;;;-1.4;88.12
44531;BME280;30240;47.418;0.700;2023-01-29T03:32:34;101857.44018554688;;;-1.4;88.12
44531;BME280;30240;47.418;0.700;2023-01-29T03:35:02;101853.20434570312;;;-1.39;88.28
44531;BME280;30240;47.418;0.700;2023-01-29T03:37:28;101855.35888671875;;;-1.44;88.29
44531;BME280;30240;47.418;0.700;2023-01-29T03:39:48;101849.267578125;;;-1.46;88.28
44531;BME280;30240;47.418;0.700;2023-01-29T03:42:18;101845.9716796875;;;-1.55;88.39
44531;BME280;30240;47.418;0.700;2023-01-29T03:44:53;101845.9716796875;;;-1.55;88.39
44531;BME280;30240;47.418;0.700;2023-01-29T03:47:07;101844.95239257812;;;-1.5;88.39
44531;BME280;30240;47.418;0.700;2023-01-29T03:47:13;101844.95239257812;;;-1.5;88.39
44531;BME280;30240;47.418;0.700;2023-01-29T03:49:32;101845.47119140625;;;-1.44;88.49
44531;BME280;30240;47.418;0.700;2023-01-29T03:49:38;101845.47119140625;;;-1.44;88.49
44531;BME280;30240;47.418;0.700;2023-01-29T03:49:44;101845.47119140625;;;-1.44;88.49
44531;BME280;30240;47.418;0.700;2023-01-29T03:49:51;101845.47119140625;;;-1.44;88.49
44531;BME280;30240;47.418;0.700;2023-01-29T03:51:56;101839.68505859375;;;-1.5;88.31
44531;BME280;30240;47.418;0.700;2023-01-29T03:54:22;101835.29663085938;;;-1.47;88.29
44531;BME280;30240;47.418;0.700;2023-01-29T03:56:56;101835.29663085938;;;-1.47;88.29
44531;BME280;30240;47.418;0.700;2023-01-29T03:59:16;101833.7646484375;;;-1.48;88.44
44531;BME280;30240;47.418;0.700;2023-01-29T03:59:22;101833.7646484375;;;-1.48;88.44
44531;BME280;30240;47.418;0.700;2023-01-29T03:59:29;101833.7646484375;;;-1.48;88.44
44531;BME280;30240;47.418;0.700;2023-01-29T03:59:34;101833.7646484375;;;-1.48;88.44
44531;BME280;30240;47.418;0.700;2023-01-29T04:01:37;101829.96826171875;;;-1.51;88.39
44531;BME280;30240;47.418;0.700;2023-01-29T04:04:04;101823.86474609375;;;-1.54;88.42
44531;BME280;30240;47.418;0.700;2023-01-29T04:04:08;101823.86474609375;;;-1.54;88.42
44531;BME280;30240;47.418;0.700;2023-01-29T04:06:26;101819.00024414062;;;-1.55;88.4
44531;BME280;30240;47.418;0.700;2023-01-29T04:08:51;101819.00024414062;;;-1.55;88.4
44531;BME280;30240;47.418;0.700;2023-01-29T04:11:17;101808.00170898438;;;-1.54;88.49
44531;BME280;30240;47.418;0.700;2023-01-29T04:13:39;101813.26293945312;;;-1.63;88.55
44531;BME280;30240;47.418;0.700;2023-01-29T04:16:07;101812.92114257812;;;-1.53;88.66
44531;BME280;30240;47.418;0.700;2023-01-29T04:18:29;101811.83471679688;;;-1.57;88.59
44531;BME280;30240;47.418;0.700;2023-01-29T04:20:54;101809.3505859375;;;-1.61;88.6
44531;BME280;30240;47.418;0.700;2023-01-29T04:23:20;101809.3505859375;;;-1.61;88.6
44531;BME280;30240;47.418;0.700;2023-01-29T04:25:46;101809.45434570312;;;-1.58;88.51
44531;BME280;30240;47.418;0.700;2023-01-29T04:25:52;101809.45434570312;;;-1.58;88.51
44531;BME280;30240;47.418;0.700;2023-01-29T04:28:13;101809.95483398438;;;-1.65;88.52
44531;BME280;30240;47.418;0.700;2023-01-29T04:30:41;101812.78076171875;;;-1.63;88.64
44531;BME280;30240;47.418;0.700;2023-01-29T04:33:03;101820.50170898438;;;-1.44;88.57
44531;BME280;30240;47.418;0.700;2023-01-29T04:35:28;101820.50170898438;;;-1.44;88.57
44531;BME280;30240;47.418;0.700;2023-01-29T04:38:00;101822.12524414062;;;-1.4;88.37
44531;BME280;30240;47.418;0.700;2023-01-29T04:38:06;101822.12524414062;;;-1.4;88.37
44531;BME280;30240;47.418;0.700;2023-01-29T04:40:19;101817.29736328125;;;-1.54;88.12
44531;BME280;30240;47.418;0.700;2023-01-29T04:42:43;101821.4599609375;;;-1.39;88.33
44531;BME280;30240;47.418;0.700;2023-01-29T04:45:10;101828.96728515625;;;-1.39;88.3
44531;BME280;30240;47.418;0.700;2023-01-29T04:45:15;101828.96728515625;;;-1.39;88.3
44531;BME280;30240;47.418;0.700;2023-01-29T04:47:34;101828.96728515625;;;-1.39;88.3
44531;BME280;30240;47.418;0.700;2023-01-29T04:50:00;101827.42309570312;;;-1.57;88.22
44531;BME280;30240;47.418;0.700;2023-01-29T04:52:23;101828.21044921875;;;-1.71;88.61
44531;BME280;30240;47.418;0.700;2023-01-29T04:52:31;101828.21044921875;;;-1.71;88.61
44531;BME280;30240;47.418;0.700;2023-01-29T04:54:51;101831.31103515625;;;-1.81;88.79
44531;BME280;30240;47.418;0.700;2023-01-29T04:57:13;101836.92016601562;;;-1.82;88.89
44531;BME280;30240;47.418;0.700;2023-01-29T04:59:38;101836.92016601562;;;-1.82;88.89
44531;BME280;30240;47.418;0.700;2023-01-29T05:02:00;101829.37622070312;;;-1.78;89.01
44531;BME280;30240;47.418;0.700;2023-01-29T05:04:25;101832.34252929688;;;-1.82;88.93
44531;BME280;30240;47.418;0.700;2023-01-29T05:06:49;101835.4736328125;;;-1.82;89.1
44531;BME280;30240;47.418;0.700;2023-01-29T05:09:15;101833.26416015625;;;-1.79;88.95
44531;BME280;30240;47.418;0.700;2023-01-29T05:11:39;101833.26416015625;;;-1.79;88.95
44531;BME280;30240;47.418;0.700;2023-01-29T05:14:05;101831.67114257812;;;-1.79;88.79
44531;BME280;30240;47.418;0.700;2023-01-29T05:16:32;101830.88989257812;;;-1.79;88.97
44531;BME280;30240;47.418;0.700;2023-01-29T05:18:54;101839.92309570312;;;-1.77;88.87
44531;BME280;30240;47.418;0.700;2023-01-29T05:21:19;101840.09399414062;;;-1.72;88.85
44531;BME280;30240;47.418;0.700;2023-01-29T05:23:44;101840.09399414062;;;-1.72;88.85
44531;BME280;30240;47.418;0.700;2023-01-29T05:26:08;101842.61474609375;;;-1.81;88.81
44531;BME280;30240;47.418;0.700;2023-01-29T05:28:34;101839.25170898438;;;-1.85;88.92
44531;BME280;30240;47.418;0.700;2023-01-29T05:30:58;101851.7822265625;;;-1.88;88.91
44531;BME280;30240;47.418;0.700;2023-01-29T05:33:25;101852.96630859375;;;-1.85;88.94
44531;BME280;30240;47.418;0.700;2023-01-29T05:35:49;101852.96630859375;;;-1.85;88.94
44531;BME280;30240;47.418;0.700;2023-01-29T05:38:14;101844.25048828125;;;-1.89;89.01
44531;BME280;30240;47.418;0.700;2023-01-29T05:40:39;101845.263671875;;;-1.85;89.11
44531;BME280;30240;47.418;0.700;2023-01-29T05:43:04;101853.3203125;;;-1.77;89.0
44531;BME280;30240;47.418;0.700;2023-01-29T05:45:29;101851.20239257812;;;-1.85;88.88
44531;BME280;30240;47.418;0.700;2023-01-29T05:47:54;101855.27954101562;;;-1.93;89.1
44531;BME280;30240;47.418;0.700;2023-01-29T05:50:18;101855.27954101562;;;-1.93;89.1
44531;BME280;30240;47.418;0.700;2023-01-29T05:52:44;101857.080078125;;;-1.98;89.08
44531;BME280;30240;47.418;0.700;2023-01-29T05:55:09;101862.2314453125;;;-1.99;89.08
44531;BME280;30240;47.418;0.700;2023-01-29T05:57:34;101859.53369140625;;;-1.98;89.25
44531;BME280;30240;47.418;0.700;2023-01-29T05:59:59;101866.04614257812;;;-2.07;89.25
44531;BME280;30240;47.418;0.700;2023-01-29T06:02:24;101866.04614257812;;;-2.07;89.25
44531;BME280;30240;47.418;0.700;2023-01-29T06:04:50;101867.65747070312;;;-2.0;89.38
44531;BME280;30240;47.418;0.700;2023-01-29T06:07:13;101863.2568359375;;;-1.98;89.33
44531;BME280;30240;47.418;0.700;2023-01-29T06:09:39;101858.51440429688;;;-1.98;89.31
44531;BME280;30240;47.418;0.700;2023-01-29T06:12:04;101857.763671875;;;-1.86;89.25
44531;BME280;30240;47.418;0.700;2023-01-29T06:14:28;101857.763671875;;;-1.86;89.25
44531;BME280;30240;47.418;0.700;2023-01-29T06:16:53;101863.86108398438;;;-2.05;89.24
44531;BME280;30240;47.418;0.700;2023-01-29T06:19:18;101867.26684570312;;;-2.03;89.34
44531;BME280;30240;47.418;0.700;2023-01-29T06:21:43;101867.1875;;;-2.02;89.15
44531;BME280;30240;47.418;0.700;2023-01-29T06:24:08;101869.23217773438;;;-1.96;89.26
44531;BME280;30240;47.418;0.700;2023-01-29T06:26:34;101869.23217773438;;;-1.96;89.26
44531;BME280;30240;47.418;0.700;2023-01-29T06:28:58;101873.9501953125;;;-1.9;88.96
44531;BME280;30240;47.418;0.700;2023-01-29T06:31:24;101879.21752929688;;;-1.96;89.09
44531;BME280;30240;47.418;0.700;2023-01-29T06:33:49;101878.86962890625;;;-1.89;88.97
44531;BME280;30240;47.418;0.700;2023-01-29T06:36:13;101874.40795898438;;;-1.9;89.1
44531;BME280;30240;47.418;0.700;2023-01-29T06:38:38;101874.40795898438;;;-1.9;89.1
44531;BME280;30240;47.418;0.700;2023-01-29T06:41:08;101872.7783203125;;;-2.06;89.01
44531;BME280;30240;47.418;0.700;2023-01-29T06:43:28;101856.41479492188;;;-1.86;89.32
44531;BME280;30240;47.418;0.700;2023-01-29T06:45:55;101865.4052734375;;;-1.88;88.98
44531;BME280;30240;47.418;0.700;2023-01-29T06:48:19;101870.31860351562;;;-1.96;89.14
44531;BME280;30240;47.418;0.700;2023-01-29T06:50:44;101870.31860351562;;;-1.96;89.14
44531;BME280;30240;47.418;0.700;2023-01-29T06:53:09;101872.10693359375;;;-2.19;89.27
44531;BME280;30240;47.418;0.700;2023-01-29T06:55:34;101879.71801757812;;;-2.05;89.31
44531;BME280;30240;47.418;0.700;2023-01-29T06:57:59;101880.99975585938;;;-1.88;89.2
44531;BME280;30240;47.418;0.700;2023-01-29T07:00:24;101881.17065429688;;;-1.88;88.92
44531;BME280;30240;47.418;0.700;2023-01-29T07:02:49;101881.17065429688;;;-1.88;88.92
44531;BME280;30240;47.418;0.700;2023-01-29T07:05:14;101874.79858398438;;;-2.03;88.86
44531;BME280;30240;47.418;0.700;2023-01-29T07:07:38;101877.5146484375;;;-1.98;88.84
44531;BME280;30240;47.418;0.700;2023-01-29T07:10:04;101875.37231445312;;;-2.09;88.65
44531;BME280;30240;47.418;0.700;2023-01-29T07:12:28;101881.494140625;;;-2.03;89.24
44531;BME280;30240;47.418;0.700;2023-01-29T07:14:53;101881.494140625;;;-2.03;89.24
44531;BME280;30240;47.418;0.700;2023-01-29T07:17:19;101883.18481445312;;;-1.99;89.03
44531;BME280;30240;47.418;0.700;2023-01-29T07:19:43;101893.02368164062;;;-2.33;89.24
44531;BME280;30240;47.418;0.700;2023-01-29T07:22:08;101906.57958984375;;;-2.58;89.91
44531;BME280;30240;47.418;0.700;2023-01-29T07:24:33;101914.404296875;;;-2.51;90.09
44531;BME280;30240;47.418;0.700;2023-01-29T07:26:58;101915.576171875;;;-2.51;90.21
44531;BME280;30240;47.418;0.700;2023-01-29T07:29:24;101915.576171875;;;-2.51;90.21
44531;BME280;30240;47.418;0.700;2023-01-29T07:31:48;101922.71728515625;;;-2.55;90.07
44531;BME280;30240;47.418;0.700;2023-01-29T07:34:13;101927.9541015625;;;-2.49;90.02
44531;BME280;30240;47.418;0.700;2023-01-29T07:36:38;101929.06494140625;;;-2.41;89.89
44531;BME280;30240;47.418;0.700;2023-01-29T07:39:03;101942.44384765625;;;-2.36;89.49
44531;BME280;30240;47.418;0.700;2023-01-29T07:41:28;101942.44384765625;;;-2.36;89.49
44531;BME280;30240;47.418;0.700;2023-01-29T07:43:53;101942.40112304688;;;-2.0;89.25
44531;BME280;30240;47.418;0.700;2023-01-29T07:46:18;101954.35180664062;;;-2.03;89.07
44531;BME280;30240;47.418;0.700;2023-01-29T07:48:44;101956.28051757812;;;-1.92;89.03
44531;BME280;30240;47.418;0.700;2023-01-29T07:51:09;101950.634765625;;;-1.79;88.4
44531;BME280;30240;47.418;0.700;2023-01-29T07:53:33;101950.634765625;;;-1.79;88.4
44531;BME280;30240;47.418;0.700;2023-01-29T07:55:59;101947.57690429688;;;-1.98;88.45
44531;BME280;30240;47.418;0.700;2023-01-29T07:58:23;101945.25146484375;;;-1.85;88.53
44531;BME280;30240;47.418;0.700;2023-01-29T08:00:48;101941.61987304688;;;-1.7;88.11
44531;BME280;30240;47.418;0.700;2023-01-29T08:03:15;101932.6416015625;;;-1.43;87.46
44531;BME280;30240;47.418;0.700;2023-01-29T08:05:38;101932.6416015625;;;-1.43;87.46
44531;BME280;30240;47.418;0.700;2023-01-29T08:08:04;101930.1513671875;;;-1.43;87.77
44531;BME280;30240;47.418;0.700;2023-01-29T08:10:29;101931.0791015625;;;-1.5;87.45
44531;BME280;30240;47.418;0.700;2023-01-29T08:12:54;101926.92260742188;;;-1.42;87.36
44531;BME280;30240;47.418;0.700;2023-01-29T08:15:18;101923.13232421875;;;-1.29;87.29
44531;BME280;30240;47.418;0.700;2023-01-29T08:17:43;101923.13232421875;;;-1.29;87.29
44531;BME280;30240;47.418;0.700;2023-01-29T08:20:09;101923.74877929688;;;-1.16;86.92
44531;BME280;30240;47.418;0.700;2023-01-29T08:22:33;101921.36840820312;;;-0.77;85.77
44531;BME280;30240;47.418;0.700;2023-01-29T08:24:58;101918.04809570312;;;-0.39;85.94
44531;BME280;30240;47.418;0.700;2023-01-29T08:27:24;101917.65747070312;;;0.68;83.42
44531;BME280;30240;47.418;0.700;2023-01-29T08:29:48;101917.65747070312;;;0.68;83.42
44531;BME280;30240;47.418;0.700;2023-01-29T08:32:14;101914.86206054688;;;0.09;82.57
44531;BME280;30240;47.418;0.700;2023-01-29T08:34:38;101910.498046875;;;-0.14;84.21
44531;BME280;30240;47.418;0.700;2023-01-29T08:37:03;101914.17236328125;;;-0.46;84.7
44531;BME280;30240;47.418;0.700;2023-01-29T08:39:28;101920.01342773438;;;-0.1;84.66
44531;BME280;30240;47.418;0.700;2023-01-29T08:41:53;101920.01342773438;;;-0.1;84.66
44531;BME280;30240;47.418;0.700;2023-01-29T08:44:18;101913.37280273438;;;1.85;81.38
44531;BME280;30240;47.418;0.700;2023-01-29T08:46:43;101907.763671875;;;1.78;77.93
44531;BME280;30240;47.418;0.700;2023-01-29T08:49:08;101903.3935546875;;;1.28;79.83
44531;BME280;30240;47.418;0.700;2023-01-29T08:51:34;101908.90502929688;;;1.98;78.03
44531;BME280;30240;47.418;0.700;2023-01-29T08:53:58;101907.95288085938;;;2.18;79.04
44531;BME280;30240;47.418;0.700;2023-01-29T08:56:23;101907.95288085938;;;2.18;79.04
44531;BME280;30240;47.418;0.700;2023-01-29T08:58:49;101905.126953125;;;2.04;77.89
44531;BME280;30240;47.418;0.700;2023-01-29T09:01:14;101894.54956054688;;;2.3;77.24
44531;BME280;30240;47.418;0.700;2023-01-29T09:03:39;101894.92797851562;;;2.87;76.77
44531;BME280;30240;47.418;0.700;2023-01-29T09:06:04;101903.369140625;;;2.91;75.9
44531;BME280;30240;47.418;0.700;2023-01-29T09:08:28;101903.369140625;;;2.91;75.9
44531;BME280;30240;47.418;0.700;2023-01-29T09:10:53;101897.85766601562;;;2.75;75.01
44531;BME280;30240;47.418;0.700;2023-01-29T09:13:19;101888.77563476562;;;4.22;73.17
44531;BME280;30240;47.418;0.700;2023-01-29T09:15:43;101889.14184570312;;;3.9;72.48
44531;BME280;30240;47.418;0.700;2023-01-29T09:18:09;101880.78002929688;;;4.51;71.32
44531;BME280;30240;47.418;0.700;2023-01-29T09:20:34;101880.78002929688;;;4.51;71.32
44531;BME280;30240;47.418;0.700;2023-01-29T09:23:02;101882.470703125;;;5.29;68.87
44531;BME280;30240;47.418;0.700;2023-01-29T09:25:24;101882.94677734375;;;5.31;69.14
44531;BME280;30240;47.418;0.700;2023-01-29T09:27:48;101878.15551757812;;;5.91;66.43
44531;BME280;30240;47.418;0.700;2023-01-29T09:30:14;101871.42333984375;;;6.13;67.11
44531;BME280;30240;47.418;0.700;2023-01-29T09:32:38;101871.42333984375;;;6.13;67.11
44531;BME280;30240;47.418;0.700;2023-01-29T09:35:04;101866.48559570312;;;5.98;65.53
44531;BME280;30240;47.418;0.700;2023-01-29T09:37:29;101860.7177734375;;;5.64;66.23
44531;BME280;30240;47.418;0.700;2023-01-29T09:39:53;101860.302734375;;;5.86;65.75
44531;BME280;30240;47.418;0.700;2023-01-29T09:42:23;101863.22021484375;;;6.4;65.34
44531;BME280;30240;47.418;0.700;2023-01-29T09:44:54;101863.22021484375;;;6.4;65.34
44531;BME280;30240;47.418;0.700;2023-01-29T09:47:12;101875.81176757812;;;6.18;64.95
44531;BME280;30240;47.418;0.700;2023-01-29T09:49:36;101874.67041015625;;;6.5;65.66
44531;BME280;30240;47.418;0.700;2023-01-29T09:52:04;101879.76684570312;;;5.36;67.71
44531;BME280;30240;47.418;0.700;2023-01-29T09:54:27;101878.955078125;;;4.34;71.94
44531;BME280;30240;47.418;0.700;2023-01-29T09:56:51;101878.955078125;;;4.34;71.94
44531;BME280;30240;47.418;0.700;2023-01-29T09:59:15;101884.92431640625;;;5.17;70.14
44531;BME280;30240;47.418;0.700;2023-01-29T10:01:44;101882.89184570312;;;4.91;71.27
44531;BME280;30240;47.418;0.700;2023-01-29T10:04:30;101890.00244140625;;;5.64;68.38
44531;BME280;30240;47.418;0.700;2023-01-29T10:04:44;101890.00244140625;;;5.64;68.38
44531;BME280;30240;47.418;0.700;2023-01-29T10:04:51;101890.00244140625;;;5.64;68.38
44531;BME280;30240;47.418;0.700;2023-01-29T10:05:01;101890.00244140625;;;5.64;68.38
44531;BME280;30240;47.418;0.700;2023-01-29T10:05:09;101890.00244140625;;;5.64;68.38
44531;BME280;30240;47.418;0.700;2023-01-29T10:06:37;101887.59155273438;;;5.04;69.12
44531;BME280;30240;47.418;0.700;2023-01-29T10:09:08;101887.59155273438;;;5.04;69.12
44531;BME280;30240;47.418;0.700;2023-01-29T10:09:17;101887.59155273438;;;5.04;69.12
44531;BME280;30240;47.418;0.700;2023-01-29T10:09:32;101887.59155273438;;;5.04;69.12
44531;BME280;30240;47.418;0.700;2023-01-29T10:11:32;101894.95239257812;;;4.1;72.5
44531;BME280;30240;47.418;0.700;2023-01-29T10:13:49;101900.32958984375;;;3.37;74.29
44531;BME280;30240;47.418;0.700;2023-01-29T10:16:17;101909.73510742188;;;4.2;72.28
44531;BME280;30240;47.418;0.700;2023-01-29T10:18:43;101911.8408203125;;;4.25;72.66
44531;BME280;30240;47.418;0.700;2023-01-29T10:18:58;101911.8408203125;;;4.25;72.66
44531;BME280;30240;47.418;0.700;2023-01-29T10:19:05;101911.8408203125;;;4.25;72.66
44531;BME280;30240;47.418;0.700;2023-01-29T10:19:13;101911.8408203125;;;4.25;72.66
44531;BME280;30240;47.418;0.700;2023-01-29T10:19:22;101911.8408203125;;;4.25;72.66
44531;BME280;30240;47.418;0.700;2023-01-29T10:21:20;101911.8408203125;;;4.25;72.66
44531;BME280;30240;47.418;0.700;2023-01-29T10:21:27;101911.8408203125;;;4.25;72.66
44531;BME280;30240;47.418;0.700;2023-01-29T10:23:25;101910.85815429688;;;4.11;73.25
44531;BME280;30240;47.418;0.700;2023-01-29T10:25:49;101910.57739257812;;;3.64;73.84